Tiempo atmosférico en la estación meteorológica de Bustillo del Páramo, León (850 m.)



Fecha
DESCASC
Temp. máxima en grados centígrados (hora)
DESCASC
Temp. mínima en grados centígrados (hora)
DESCASC
Temp. media en grados centígrados
DESCASC
Racha de viento máxima en m/sg (hora)
DESCASC
Velocidad máxima media en intervalos de 10 minutos(hora)
DESCASC
Precipitaciones diarias en mm
DESCASC
Precipitaciones de 00:00 a 06:00 en mm
DESCASC
Precipitaciones de 06:00 a 12:00 en mm
DESCASC
Precipitaciones de 12:00 a 18:00 en mm
DESCASC
Precipitaciones de 18:00 a 24:00 en mm
DESCASC
06-07-2020 30.4 (18:40) 15.8 (07:00) 23.1 10.56 (21:50) 6.94 (21:40) 0 0 0 0 0
05-07-2020 30.9 (18:50) 14.2 (07:10) 22.5 5 (21:50) 3.33 (23:50) 0 0 0 0 0
04-07-2020 29 (19:30) 9.2 (06:50) 19.1 5.83 (17:30) 3.61 (23:10) 0 0 0 0 0
03-07-2020 25.3 (19:40) 7 (06:50) 16.1 6.94 (17:00) 3.61 (00:20) 0 0 0 0 0
02-07-2020 24.1 (16:40) 12.3 (00:00) 18.2 9.17 (19:20) 6.67 (19:20) 0 0 0 0 0
01-07-2020 27.3 (16:40) 16.5 (00:00) 21.9 13.61 (18:30) 9.72 (18:30) 0 0 0 0 0
30-06-2020 30.5 (16:40) 13.2 (00:00) 21.8 9.17 (20:10) 6.39 (20:10) 0 0 0 0 0
29-06-2020 28.6 (19:40) 12.2 (00:00) 20.4 6.39 (23:30) 3.89 (01:30) 0 0 0 0 0
28-06-2020 27 (17:00) 13.3 (00:00) 20.2 11.11 (20:50) 8.33 (20:50) 0 0 0 0 0
27-06-2020 24.7 (17:20) 13.4 (00:00) 19.1 11.11 (19:00) 8.06 (18:30) 0 0 0 0 0
26-06-2020 25.6 (15:30) 13.8 (00:00) 19.7 11.67 (20:50) 7.5 (21:10) 0 0 0 0 0
25-06-2020 29.7 (17:50) 13.6 (00:00) 21.7 12.5 (18:10) 7.78 (17:50) 0.6 0.6 0 0 0
24-06-2020 28.9 (16:30) 14.5 (00:00) 21.7 11.67 (20:30) 8.61 (20:10) 2 0 0 0 2
23-06-2020 33.2 (16:40) 12.6 (00:00) 22.9 7.5 (23:20) 3.89 (05:30) 0 0 0 0 0
22-06-2020 30 (18:50) 10.1 (00:00) 20.1 6.11 (17:00) 3.61 (23:40) 0 0 0 0 0
21-06-2020 27.7 (17:10) 11.1 (00:00) 19.4 10 (03:10) 7.22 (03:10) 0 0 0 0 0
20-06-2020 27.8 (17:40) 8.4 (00:00) 18.1 9.44 (20:00) 7.22 (20:00) 0 0 0 0 0
19-06-2020 25 (18:30) 7.8 (00:00) 16.4 10.28 (20:00) 7.22 (21:20) 0 0 0 0 0
18-06-2020 22.5 (19:00) 7 (00:00) 14.8 8.89 (21:20) 6.39 (21:20) 0 0 0 0 0
17-06-2020 19.4 (16:00) 7.8 (00:00) 13.6 8.33 (20:50) 5.83 (20:00) 0.6 0 0 0 0.6
16-06-2020 20.8 (15:30) 8.7 (00:00) 14.7 15.28 (16:50) 11.11 (16:50) 0 0 0 0 0
15-06-2020 19.2 (16:40) 8.1 (00:00) 13.7 10.28 (12:00) 7.78 (12:10) 0 0 0 0 0
14-06-2020 18 (16:40) 7.4 (00:00) 12.7 10 (17:10) 6.94 (20:30) 0 0 0 0 0
13-06-2020 16.8 (15:10) 8.5 (00:00) 12.6 11.39 (13:20) 7.78 (13:20) 0.4 0 0 0.4 0
12-06-2020 15.5 (17:10) 7.8 (00:00) 11.7 14.17 (15:10) 9.17 (01:40) 1.2 0.2 0 1 0
11-06-2020 17.1 (12:00) 8.9 (00:00) 13 16.11 (17:40) 12.5 (15:50) 0 0 0 0 0
10-06-2020 22.9 (19:30) 6.6 (00:00) 14.7 10.83 (20:00) 7.78 (20:00) 0 0 0 0 0

Gráficas

Temp. máximas Temp. mínimas Temp. medias Precipitaciones Rachas de viento máximas Velocidades máximas media en intervalos de 10 minutos

Datos horarios

Fecha y hora oficial Temperatura (ºC) Velocidad del viento (km/h) Dirección del viento Racha (km/h) Dirección de racha Precipitación (mm) Presión (hPa) Tendencia (hPa) Humedad (%)
2020-07-09 23:00:00 20.3 10 Nordeste 19 Nordeste 0 -- -- 66
2020-07-09 22:00:00 20.9 6 Nordeste 30 Sur 0 -- -- 70
2020-07-09 21:00:00 20.5 15 Sudeste 62 Este 0 -- -- 66
2020-07-09 20:00:00 28.9 16 Nordeste 27 Nordeste 0 -- -- 41
2020-07-09 19:00:00 31.5 6 Sudoeste 12 Sudoeste 0 -- -- 32
2020-07-09 18:00:00 31.1 9 Sudoeste 14 Sudoeste 0 -- -- 31
2020-07-09 17:00:00 30.7 6 Sur 14 Sudoeste 0 -- -- 35
2020-07-09 16:00:00 29.9 8 Sur 15 Sur 0 -- -- 36
2020-07-09 15:00:00 29.4 6 Sur 14 Este 0 -- -- 37
2020-07-09 14:00:00 28.4 4 Sur 11 Este 0 -- -- 37
2020-07-09 13:00:00 27.2 4 Este 10 Este 0 -- -- 41
2020-07-09 12:00:00 25.9 3 Norte 10 Nordeste 0 -- -- 44
2020-07-09 11:00:00 24 6 Nordeste 14 Nordeste 0 -- -- 47
2020-07-09 10:00:00 22.2 3 Norte 9 Norte 0 -- -- 52
2020-07-09 09:00:00 18.2 5 Noroeste 10 Noroeste 0 -- -- 75
2020-07-09 08:00:00 14.9 2 Nordeste 10 Este 0 -- -- 86
2020-07-09 07:00:00 13.7 6 Norte 11 Norte 0 -- -- 87
2020-07-09 06:00:00 14.4 8 Noroeste 13 Noroeste 0 -- -- 85
2020-07-09 05:00:00 15.2 12 Noroeste 15 Noroeste 0 -- -- 84
2020-07-09 04:00:00 15.9 10 Noroeste 13 Noroeste 0 -- -- 84
2020-07-09 03:00:00 16.6 8 Noroeste 11 Norte 0 -- -- 83
2020-07-09 02:00:00 18.2 4 Noroeste 29 Nordeste 0 -- -- 73
2020-07-09 01:00:00 19.1 21 Nordeste 35 Nordeste 0 -- -- 67
2020-07-09 00:00:00 19.1 16 Nordeste 30 Este 0 -- -- 70
2020-07-08 23:00:00 19.7 17 Sudeste 26 Sudeste 1.4 -- -- 63
2020-07-08 22:00:00 21.4 18 Sudeste 71 Este 1.4 -- -- 52
2020-07-08 21:00:00 22.3 36 Nordeste 70 Nordeste 0.8 -- -- 45
2020-07-08 20:00:00 20.2 23 Oeste 52 Sudoeste 1 -- -- 61
2020-07-08 19:00:00 22.9 30 Oeste 54 Oeste 0.2 -- -- 45
2020-07-08 18:00:00 23.5 35 Sur 76 Sudoeste 0.8 -- -- 48
2020-07-08 17:00:00 31.9 11 Este 21 Sudeste 0 -- -- 28
2020-07-08 16:00:00 33.1 13 Sudeste 29 Este 0 -- -- 24
2020-07-08 15:00:00 32.4 18 Sudeste 30 Este 0 -- -- 25
2020-07-08 14:00:00 31.7 14 Este 27 Este 0 -- -- 28
2020-07-08 13:00:00 29.4 18 Este 27 Este 0 -- -- 31
2020-07-08 12:00:00 27.8 13 Este 26 Este 0 -- -- 34
2020-07-08 11:00:00 26 16 Este 26 Nordeste 0 -- -- 37
2020-07-08 10:00:00 24.3 8 Nordeste 14 Nordeste 0 -- -- 43
2020-07-08 09:00:00 19.7 5 Norte 13 Noroeste 0 -- -- 64
2020-07-08 08:00:00 15.2 8 Noroeste 13 Noroeste 0 -- -- 78
2020-07-08 07:00:00 13.8 9 Noroeste 13 Noroeste 0 -- -- 82
2020-07-08 06:00:00 14.5 9 Noroeste 14 Noroeste 0 -- -- 79
2020-07-08 05:00:00 15.1 8 Norte 15 Norte 0 -- -- 76
2020-07-08 04:00:00 15.3 9 Noroeste 12 Noroeste 0 -- -- 74
2020-07-08 03:00:00 16.7 4 Oeste 11 Noroeste 0 -- -- 72
2020-07-08 02:00:00 18.8 8 Norte 16 Nordeste 0 -- -- 60
2020-07-08 01:00:00 18.6 13 Nordeste 16 Nordeste 0 -- -- 64
2020-07-08 00:00:00 22 12 Este 37 Este 0 -- -- 51
2020-07-07 23:00:00 25.3 8 Sudeste 11 Este 0 -- -- 42
2020-07-07 22:00:00 26.6 7 Este 11 Sudeste 0 -- -- 43
2020-07-07 21:00:00 29.6 10 Este 12 Sudeste 0 -- -- 35
2020-07-07 20:00:00 31.1 6 Sudeste 14 Sudeste 0 -- -- 31
2020-07-07 19:00:00 31.8 7 Sudeste 15 Sudeste 0 -- -- 27
2020-07-07 18:00:00 31.2 5 Sudeste 17 Sudeste 0 -- -- 28
2020-07-07 17:00:00 30.4 9 Sudeste 16 Sudeste 0 -- -- 31
2020-07-07 16:00:00 29.7 8 Sudeste 15 Sur 0 -- -- 32
2020-07-07 15:00:00 28.8 8 Sur 15 Sudeste 0 -- -- 31
2020-07-07 14:00:00 27.4 5 Sudoeste 13 Sudeste 0 -- -- 32
2020-07-07 13:00:00 25.6 5 Nordeste 12 Nordeste 0 -- -- 30
2020-07-07 12:00:00 23.8 5 Sudeste 12 Sudeste 0 -- -- 34
2020-07-07 11:00:00 21.8 4 Sudeste 11 Noroeste 0 -- -- 37
2020-07-07 10:00:00 19.3 6 Oeste 10 Norte 0 -- -- 45
2020-07-07 09:00:00 17.2 8 Noroeste 12 Noroeste 0 -- -- 54
2020-07-07 08:00:00 14 6 Noroeste 10 Noroeste 0 -- -- 85
2020-07-07 07:00:00 12.7 5 Noroeste 7 Noroeste 0 -- -- 87
2020-07-07 06:00:00 13.3 4 Oeste 6 Noroeste 0 -- -- 87
2020-07-07 05:00:00 13.9 2 Oeste 8 Sur 0 -- -- 85
2020-07-07 04:00:00 14.5 6 Sur 8 Sudoeste 0 -- -- 84
2020-07-07 03:00:00 15.2 2 Sudeste 8 Este 0 -- -- 74
2020-07-07 02:00:00 15.9 4 Este 9 Este 0 -- -- 73
2020-07-07 01:00:00 16.6 4 Sudeste 17 Este 0 -- -- 72
2020-07-07 00:00:00 18 8 Este 22 Este 0 -- -- 67
2020-07-06 23:00:00 19.7 15 Este 33 Este 0 -- -- 57
2020-07-06 22:00:00 22.4 18 Este 38 Este 0 -- -- 50
2020-07-06 21:00:00 25.9 23 Este 36 Este 0 -- -- 44
2020-07-06 20:00:00 28.9 14 Sudeste 21 Sudeste 0 -- -- 42
2020-07-06 19:00:00 30.4 9 Sudeste 17 Este 0 -- -- 38
2020-07-06 18:00:00 30.1 9 Sudeste 16 Sudeste 0 -- -- 40
2020-07-06 17:00:00 29.7 7 Sudeste 22 Sur 0 -- -- 40
2020-07-06 16:00:00 28.7 8 Sudeste 18 Sur 0 -- -- 45
2020-07-06 15:00:00 27.6 5 Sur 14 Sur 0 -- -- 46
2020-07-06 14:00:00 26.7 6 Sur 14 Sur 0 -- -- 50
2020-07-06 13:00:00 25.4 6 Sudeste 15 Sudeste 0 -- -- 52
2020-07-06 12:00:00 24 4 Noroeste 11 Sudeste 0 -- -- 54
2020-07-06 11:00:00 22.2 4 Este 9 Sudeste 0 -- -- 59
2020-07-06 10:00:00 20.8 5 Este 10 Sudeste 0 -- -- 64
2020-07-06 09:00:00 19.6 5 Este 8 Este 0 -- -- 67
2020-07-06 08:00:00 17.2 5 Nordeste 8 Este 0 -- -- 83
2020-07-06 07:00:00 15.8 3 Nordeste 5 Sudeste 0 -- -- 85
2020-07-06 06:00:00 17.1 4 Sudeste 12 Este 0 -- -- 80
2020-07-06 05:00:00 16.9 5 Nordeste 8 Nordeste 0 -- -- 82
2020-07-06 04:00:00 17.6 6 Nordeste 10 Este 0 -- -- 79
2020-07-06 03:00:00 17.8 8 Este 13 Nordeste 0 -- -- 78
2020-07-06 02:00:00 18.7 9 Este 12 Nordeste 0 -- -- 76
2020-07-06 01:00:00 21 5 Nordeste 17 Norte 0 -- -- 63
2020-07-06 00:00:00 22.7 12 Norte 15 Norte 0 -- -- 55
2020-07-05 23:00:00 24 9 Nordeste 14 Norte 0 -- -- 55
2020-07-05 22:00:00 26.5 9 Norte 18 Noroeste 0 -- -- 52
2020-07-05 21:00:00 29.5 3 Sudeste 9 Sur 0 -- -- 39
2020-07-05 20:00:00 30.5 6 Sur 13 Sudeste 0 -- -- 40
2020-07-05 19:00:00 30.7 8 Sudeste 15 Sur 0 -- -- 35
2020-07-05 18:00:00 30.7 8 Sudeste 16 Sudeste 0 -- -- 36
2020-07-05 17:00:00 30.5 6 Sudeste 17 Sudeste 0 -- -- 35
2020-07-05 16:00:00 29.8 4 Sudoeste 13 Sudeste 0 -- -- 36
2020-07-05 15:00:00 28.7 4 Oeste 15 Noroeste 0 -- -- 39
2020-07-05 14:00:00 27.4 5 Sudoeste 12 Sur 0 -- -- 44
2020-07-05 13:00:00 26.2 4 Sudeste 11 Sudeste 0 -- -- 44
2020-07-05 12:00:00 24.9 6 Sur 9 Sur 0 -- -- 49
2020-07-05 11:00:00 23.7 4 Sudeste 8 Sur 0 -- -- 50
2020-07-05 10:00:00 21.6 2 Noroeste 8 Noroeste 0 -- -- 56
2020-07-05 09:00:00 19.3 5 Noroeste 9 Noroeste 0 -- -- 68
2020-07-05 08:00:00 16 6 Noroeste 9 Noroeste 0 -- -- 80
2020-07-05 07:00:00 14.3 6 Norte 8 Norte 0 -- -- 82
2020-07-05 06:00:00 15.2 3 Nordeste 5 Nordeste 0 -- -- 80
2020-07-05 05:00:00 16.6 -- -- -- -- 0 -- -- 73
2020-07-05 04:00:00 17.4 2 Sudeste 5 Sudoeste 0 -- -- 70
2020-07-05 03:00:00 17.1 2 Oeste 4 Oeste 0 -- -- 76
2020-07-05 02:00:00 18.1 3 Norte 8 Norte 0 -- -- 69
2020-07-05 01:00:00 19.5 7 Norte 14 Norte 0 -- -- 63
2020-07-05 00:00:00 20.6 11 Norte 19 Nordeste 0 -- -- 59
2020-07-04 23:00:00 22 11 Nordeste 19 Nordeste 0 -- -- 55
2020-07-04 22:00:00 24.7 8 Nordeste 16 Nordeste 0 -- -- 45
2020-07-04 21:00:00 26.8 5 Sur 12 Sur 0 -- -- 40
2020-07-04 20:00:00 28.7 9 Sudeste 21 Sudeste 0 -- -- 34
2020-07-04 19:00:00 28.8 7 Sudeste 20 Sudeste 0 -- -- 33
2020-07-04 18:00:00 28.7 8 Sudeste 21 Sudeste 0 -- -- 32
2020-07-04 17:00:00 27.8 9 Este 19 Este 0 -- -- 34
2020-07-04 16:00:00 27.5 7 Sudeste 16 Este 0 -- -- 34
2020-07-04 15:00:00 26.2 5 Sudoeste 13 Sudeste 0 -- -- 34
2020-07-04 14:00:00 24.9 7 Sudeste 13 Oeste 0 -- -- 39
2020-07-04 13:00:00 23.2 4 Sudoeste 10 Sudoeste 0 -- -- 45
2020-07-04 12:00:00 21 6 Oeste 12 Sudoeste 0 -- -- 52
2020-07-04 11:00:00 18.9 6 Sudoeste 12 Sudoeste 0 -- -- 57
2020-07-04 10:00:00 16.9 3 Sudoeste 9 Noroeste 0 -- -- 66
2020-07-04 09:00:00 14.7 5 Noroeste 11 Noroeste 0 -- -- 73
2020-07-04 08:00:00 11.3 5 Noroeste 10 Noroeste 0 -- -- 85
2020-07-04 07:00:00 9.2 4 Noroeste 10 Noroeste 0 -- -- 88
2020-07-04 06:00:00 10 5 Noroeste 13 Noroeste 0 -- -- 87
2020-07-04 05:00:00 11 5 Noroeste 6 Noroeste 0 -- -- 85
2020-07-04 04:00:00 12.7 3 Nordeste 12 Este 0 -- -- 79
2020-07-04 03:00:00 13.9 7 Este 9 Este 0 -- -- 74
2020-07-04 02:00:00 13.7 6 Norte 9 Nordeste 0 -- -- 72
2020-07-04 01:00:00 14.9 6 Norte 9 Nordeste 0 -- -- 69
2020-07-04 00:00:00 17.3 8 Noroeste 17 Noroeste 0 -- -- 57
2020-07-03 23:00:00 18.9 8 Noroeste 13 Noroeste 0 -- -- 56
2020-07-03 22:00:00 21.8 4 Sudeste 8 Sudeste 0 -- -- 44
2020-07-03 21:00:00 23.5 6 Sudeste 13 Sur 0 -- -- 41
2020-07-03 20:00:00 25.2 9 Sur 15 Sur 0 -- -- 33
2020-07-03 19:00:00 25.1 10 Sur 18 Sur 0 -- -- 32
2020-07-03 18:00:00 25 5 Sudeste 21 Sur 0 -- -- 33
2020-07-03 17:00:00 24.3 7 Sur 25 Sudeste 0 -- -- 34
2020-07-03 16:00:00 23 7 Nordeste 15 Norte 0 -- -- 32
2020-07-03 15:00:00 21.5 8 Norte 16 Noroeste 0 -- -- 38
2020-07-03 14:00:00 19.7 5 Sudeste 16 Oeste 0 -- -- 45
2020-07-03 13:00:00 18.3 4 Nordeste 13 Sudoeste 0 -- -- 54
2020-07-03 12:00:00 16.6 4 Sudoeste 12 Sudoeste 0 -- -- 58
2020-07-03 11:00:00 15 4 Sur 8 Sur 0 -- -- 64
2020-07-03 10:00:00 13.7 3 Sudeste 10 Este 0 -- -- 69
2020-07-03 09:00:00 11.9 5 Nordeste 11 Norte 0 -- -- 73
2020-07-03 08:00:00 9.2 9 Norte 12 Noroeste 0 -- -- 80
2020-07-03 07:00:00 7 5 Noroeste 8 Norte 0 -- -- 87
2020-07-03 06:00:00 7.4 8 Norte 9 Norte 0 -- -- 84
2020-07-03 05:00:00 8.5 5 Nordeste 11 Norte 0 -- -- 81
2020-07-03 04:00:00 8.8 4 Nordeste 9 Noroeste 0 -- -- 81
2020-07-03 03:00:00 9.7 6 Norte 12 Nordeste 0 -- -- 75
2020-07-03 02:00:00 10.5 8 Norte 16 Norte 0 -- -- 73
2020-07-03 01:00:00 11.5 10 Norte 19 Norte 0 -- -- 69
2020-07-03 00:00:00 12.7 9 Nordeste 21 Norte 0 -- -- 67
2020-07-02 23:00:00 14.8 13 Norte 26 Norte 0 -- -- 62
2020-07-02 22:00:00 16.4 17 Norte 31 Noroeste 0 -- -- 58
2020-07-02 21:00:00 19 21 Norte 32 Norte 0 -- -- 52
2020-07-02 20:00:00 22.1 20 Noroeste 33 Noroeste 0 -- -- 43
2020-07-02 19:00:00 23.3 20 Noroeste 30 Oeste 0 -- -- 38
2020-07-02 18:00:00 23.6 18 Noroeste 32 Noroeste 0 -- -- 40
2020-07-02 17:00:00 23.8 14 Noroeste 29 Oeste 0 -- -- 42
2020-07-02 16:00:00 23.6 10 Oeste 18 Oeste 0 -- -- 42
2020-07-02 15:00:00 22.8 4 Sudoeste 16 Sur 0 -- -- 44
2020-07-02 14:00:00 21.7 6 Noroeste 17 Sudoeste 0 -- -- 47
2020-07-02 13:00:00 20.6 7 Sudoeste 18 Sudoeste 0 -- -- 50
2020-07-02 12:00:00 19.4 12 Oeste 19 Oeste 0 -- -- 57
2020-07-02 11:00:00 19.2 13 Noroeste 22 Noroeste 0 -- -- 58
2020-07-02 10:00:00 16.5 12 Oeste 23 Oeste 0 -- -- 68
2020-07-02 09:00:00 15.3 13 Oeste 22 Oeste 0 -- -- 76
2020-07-02 08:00:00 14.2 9 Noroeste 13 Noroeste 0 -- -- 85
2020-07-02 07:00:00 12.3 9 Noroeste 17 Noroeste 0 -- -- 88
2020-07-02 06:00:00 12.8 12 Noroeste 17 Noroeste 0 -- -- 86
2020-07-02 05:00:00 13 6 Noroeste 19 Oeste 0 -- -- 85
2020-07-02 04:00:00 14 12 Noroeste 23 Noroeste 0 -- -- 81
2020-07-02 03:00:00 14.7 13 Noroeste 28 Oeste 0 -- -- 79
2020-07-02 02:00:00 15.5 17 Noroeste 29 Oeste 0 -- -- 74
2020-07-02 01:00:00 16.5 17 Noroeste 24 Noroeste 0 -- -- 72
2020-07-02 00:00:00 17 14 Oeste 23 Oeste 0 -- -- 72
2020-07-01 23:00:00 18 12 Oeste 28 Oeste 0 -- -- 67
2020-07-01 22:00:00 20.1 16 Noroeste 40 Oeste 0 -- -- 58
2020-07-01 21:00:00 22.3 27 Oeste 45 Oeste 0 -- -- 50
2020-07-01 20:00:00 24 28 Oeste 46 Oeste 0 -- -- 46
2020-07-01 19:00:00 25.3 30 Noroeste 49 Oeste 0 -- -- 42
2020-07-01 18:00:00 25.9 30 Noroeste 44 Noroeste 0 -- -- 42
2020-07-01 17:00:00 27.1 26 Noroeste 40 Oeste 0 -- -- 37
2020-07-01 16:00:00 27.1 26 Noroeste 44 Noroeste 0 -- -- 39
2020-07-01 15:00:00 26.7 26 Noroeste 37 Noroeste 0 -- -- 39
2020-07-01 14:00:00 26.3 21 Noroeste 33 Oeste 0 -- -- 42
2020-07-01 13:00:00 25 24 Noroeste 37 Oeste 0 -- -- 43
2020-07-01 12:00:00 23.7 26 Oeste 36 Oeste 0 -- -- 48
2020-07-01 11:00:00 21.8 26 Oeste 36 Oeste 0 -- -- 59
2020-07-01 10:00:00 20.3 26 Oeste 36 Oeste 0 -- -- 69
2020-07-01 09:00:00 19.1 18 Noroeste 28 Noroeste 0 -- -- 75
2020-07-01 08:00:00 17.6 15 Noroeste 24 Noroeste 0 -- -- 85
2020-07-01 07:00:00 16.7 14 Noroeste 24 Oeste 0 -- -- 88
2020-07-01 06:00:00 17.5 18 Noroeste 26 Noroeste 0 -- -- 86
2020-07-01 05:00:00 17.3 14 Noroeste 23 Noroeste 0 -- -- 86
2020-07-01 04:00:00 17.1 15 Noroeste 21 Noroeste 0 -- -- 85
2020-07-01 03:00:00 16.7 12 Noroeste 16 Noroeste 0 -- -- 77
2020-07-01 02:00:00 17.4 9 Norte 15 Nordeste 0 -- -- 72
2020-07-01 01:00:00 18.1 7 Nordeste 16 Nordeste 0 -- -- 68
2020-07-01 00:00:00 18.5 7 Norte 14 Noroeste 0 -- -- 71
2020-06-30 23:00:00 19.9 10 Noroeste 22 Noroeste 0 -- -- 66
2020-06-30 22:00:00 21.2 17 Noroeste 24 Noroeste 0 -- -- 61
2020-06-30 21:00:00 23.7 17 Noroeste 33 Noroeste 0 -- -- 51
2020-06-30 20:00:00 25.5 21 Noroeste 31 Noroeste 0 -- -- 49
2020-06-30 19:00:00 27.2 15 Noroeste 23 Noroeste 0 -- -- 43
2020-06-30 18:00:00 27.8 15 Noroeste 28 Noroeste 0 -- -- 43
2020-06-30 17:00:00 29.4 12 Oeste 22 Oeste 0 -- -- 41
2020-06-30 16:00:00 30 9 Sur 22 Sudeste 0 -- -- 37
2020-06-30 15:00:00 28.7 7 Sur 17 Sur 0 -- -- 42
2020-06-30 14:00:00 27.6 7 Sudeste 20 Sudeste 0 -- -- 43
2020-06-30 13:00:00 26.4 8 Sur 15 Sur 0 -- -- 44
2020-06-30 12:00:00 25.2 4 Sur 9 Sur 0 -- -- 49
2020-06-30 11:00:00 22.7 5 Noroeste 10 Noroeste 0 -- -- 54
2020-06-30 10:00:00 20.7 4 Norte 10 Noroeste 0 -- -- 58
2020-06-30 09:00:00 18.8 3 Este 5 Nordeste 0 -- -- 64
2020-06-30 08:00:00 15.5 2 Norte 5 Noroeste 0 -- -- 77
2020-06-30 07:00:00 13.2 5 Noroeste 8 Norte 0 -- -- 84
2020-06-30 06:00:00 14.2 5 Norte 7 Norte 0 -- -- 82
2020-06-30 05:00:00 14.9 3 Nordeste 6 Oeste 0 -- -- 79
2020-06-30 04:00:00 15.5 5 Oeste 8 Oeste 0 -- -- 78
2020-06-30 03:00:00 16.6 5 Norte 8 Norte 0 -- -- 70
2020-06-30 02:00:00 17.8 5 Nordeste 12 Norte 0 -- -- 65
2020-06-30 01:00:00 19.1 8 Norte 13 Norte 0 -- -- 61
2020-06-30 00:00:00 20.7 9 Nordeste 23 Nordeste 0 -- -- 54
2020-06-29 23:00:00 21.6 9 Noroeste 19 Norte 0 -- -- 62
2020-06-29 22:00:00 24.7 13 Noroeste 18 Norte 0 -- -- 50
2020-06-29 21:00:00 27.7 5 Este 15 Sur 0 -- -- 43
2020-06-29 20:00:00 28.6 4 Sudoeste 12 Este 0 -- -- 39
2020-06-29 19:00:00 28.5 4 Sur 13 Sudoeste 0 -- -- 40
2020-06-29 18:00:00 28.2 8 Sur 15 Sudeste 0 -- -- 40
2020-06-29 17:00:00 27.4 6 Sudoeste 15 Sudeste 0 -- -- 41
2020-06-29 16:00:00 26.3 6 Sudeste 19 Este 0 -- -- 44
2020-06-29 15:00:00 25.3 8 Sur 14 Sur 0 -- -- 44
2020-06-29 14:00:00 23.7 5 Este 15 Este 0 -- -- 50
2020-06-29 13:00:00 22.9 8 Este 15 Sudeste 0 -- -- 55
2020-06-29 12:00:00 21 6 Sudoeste 15 Sudoeste 0 -- -- 64
2020-06-29 11:00:00 20.3 6 Sur 15 Sudeste 0 -- -- 66
2020-06-29 10:00:00 19.3 4 Este 8 Noroeste 0 -- -- 70
2020-06-29 09:00:00 15.8 7 Noroeste 13 Norte 0 -- -- 82
2020-06-29 08:00:00 13.3 9 Norte 14 Norte 0 -- -- 89
2020-06-29 07:00:00 12.2 9 Noroeste 13 Noroeste 0 -- -- 89
2020-06-29 06:00:00 12.7 8 Noroeste 10 Norte 0 -- -- 88
2020-06-29 05:00:00 13.7 7 Norte 14 Noroeste 0 -- -- 84
2020-06-29 04:00:00 15.1 9 Noroeste 15 Norte 0 -- -- 82
2020-06-29 03:00:00 15.6 8 Norte 14 Norte 0 -- -- 80
2020-06-29 02:00:00 16.2 9 Noroeste 19 Noroeste 0 -- -- 78
2020-06-29 01:00:00 16.6 10 Noroeste 18 Noroeste 0 -- -- 78
2020-06-29 00:00:00 17.6 16 Noroeste 28 Oeste 0 -- -- 74
2020-06-28 23:00:00 19 18 Noroeste 31 Oeste 0 -- -- 68
2020-06-28 22:00:00 20.7 18 Noroeste 40 Noroeste 0 -- -- 60
2020-06-28 21:00:00 22.7 28 Noroeste 40 Noroeste 0 -- -- 53
2020-06-28 20:00:00 24.5 28 Noroeste 39 Oeste 0 -- -- 48
2020-06-28 19:00:00 25.7 28 Noroeste 37 Oeste 0 -- -- 45
2020-06-28 18:00:00 26.4 19 Oeste 33 Oeste 0 -- -- 44
2020-06-28 17:00:00 27 19 Oeste 32 Oeste 0 -- -- 41
2020-06-28 16:00:00 26.3 18 Oeste 32 Noroeste 0 -- -- 44
2020-06-28 15:00:00 26 20 Oeste 30 Oeste 0 -- -- 44
2020-06-28 14:00:00 25.2 16 Sudoeste 26 Sudoeste 0 -- -- 45
2020-06-28 13:00:00 24 10 Oeste 23 Sudoeste 0 -- -- 47
2020-06-28 12:00:00 22.4 12 Noroeste 27 Oeste 0 -- -- 51
2020-06-28 11:00:00 20.8 19 Noroeste 30 Oeste 0 -- -- 56
2020-06-28 10:00:00 18.5 22 Oeste 30 Oeste 0 -- -- 63
2020-06-28 09:00:00 16 14 Oeste 32 Oeste 0 -- -- 74
2020-06-28 08:00:00 14.6 20 Noroeste 32 Oeste 0 -- -- 79
2020-06-28 07:00:00 13.4 22 Noroeste 32 Noroeste 0 -- -- 84
2020-06-28 06:00:00 13.7 19 Oeste 31 Oeste 0 -- -- 84
2020-06-28 05:00:00 14.1 20 Noroeste 28 Oeste 0 -- -- 83
2020-06-28 04:00:00 14.3 9 Oeste 19 Oeste 0 -- -- 85
2020-06-28 03:00:00 14.7 9 Noroeste 24 Noroeste 0 -- -- 83
2020-06-28 02:00:00 15.4 16 Noroeste 24 Noroeste 0 -- -- 80
2020-06-28 01:00:00 16.2 12 Oeste 26 Oeste 0 -- -- 76
2020-06-28 00:00:00 17.1 14 Noroeste 21 Noroeste 0 -- -- 72
2020-06-27 23:00:00 18 11 Oeste 23 Noroeste 0 -- -- 71
2020-06-27 22:00:00 19.5 16 Oeste 28 Oeste 0 -- -- 64
2020-06-27 21:00:00 21.1 24 Noroeste 36 Oeste 0 -- -- 61
2020-06-27 20:00:00 22.5 26 Oeste 36 Oeste 0 -- -- 55
2020-06-27 19:00:00 23.2 27 Oeste 40 Oeste 0 -- -- 53
2020-06-27 18:00:00 23.7 24 Noroeste 37 Noroeste 0 -- -- 53
2020-06-27 17:00:00 24.2 23 Noroeste 36 Noroeste 0 -- -- 49
2020-06-27 16:00:00 22.5 12 Noroeste 29 Noroeste 0 -- -- 56
2020-06-27 15:00:00 22 18 Noroeste 27 Oeste 0 -- -- 54
2020-06-27 14:00:00 22.5 14 Oeste 26 Oeste 0 -- -- 53
2020-06-27 13:00:00 20.8 15 Oeste 21 Oeste 0 -- -- 58
2020-06-27 12:00:00 19.6 12 Sudoeste 21 Sudoeste 0 -- -- 63
2020-06-27 11:00:00 19.3 11 Sudoeste 20 Oeste 0 -- -- 63
2020-06-27 10:00:00 18.9 10 Noroeste 19 Noroeste 0 -- -- 66
2020-06-27 09:00:00 16.9 7 Sudoeste 12 Sudoeste 0 -- -- 74
2020-06-27 08:00:00 15.3 6 Noroeste 13 Noroeste 0 -- -- 84
2020-06-27 07:00:00 13.6 6 Oeste 17 Oeste 0 -- -- 86
2020-06-27 06:00:00 13.4 10 Oeste 14 Noroeste 0 -- -- 86
2020-06-27 05:00:00 14.8 15 Oeste 26 Oeste 0 -- -- 79
2020-06-27 04:00:00 15.1 16 Oeste 24 Oeste 0 -- -- 80
2020-06-27 03:00:00 15.5 17 Oeste 31 Oeste 0 -- -- 79
2020-06-27 02:00:00 16 19 Noroeste 31 Noroeste 0 -- -- 76
2020-06-27 01:00:00 16.6 12 Oeste 27 Oeste 0 -- -- 74
2020-06-27 00:00:00 16.9 17 Oeste 28 Oeste 0 -- -- 72
2020-06-26 23:00:00 17.5 17 Oeste 34 Noroeste 0 -- -- 68
2020-06-26 22:00:00 18.8 22 Oeste 40 Oeste 0 -- -- 61
2020-06-26 21:00:00 20.8 25 Oeste 42 Oeste 0 -- -- 54
2020-06-26 20:00:00 22 26 Noroeste 37 Noroeste 0 -- -- 48
2020-06-26 19:00:00 24.2 22 Oeste 31 Oeste 0 -- -- 39
2020-06-26 18:00:00 23.1 23 Oeste 38 Oeste 0 -- -- 40
2020-06-26 17:00:00 23.8 26 Noroeste 34 Oeste 0 -- -- 33
2020-06-26 16:00:00 25.3 11 Noroeste 32 Sur 0 -- -- 41
2020-06-26 15:00:00 24.9 13 Sudoeste 24 Sur 0 -- -- 42
2020-06-26 14:00:00 23.4 8 Sudoeste 22 Sudoeste 0 -- -- 47
2020-06-26 13:00:00 22.1 10 Oeste 22 Noroeste 0 -- -- 54
2020-06-26 12:00:00 20.6 14 Oeste 23 Oeste 0 -- -- 62
2020-06-26 11:00:00 19.7 6 Norte 17 Noroeste 0 -- -- 68
2020-06-26 10:00:00 18.1 12 Noroeste 22 Noroeste 0 -- -- 74
2020-06-26 09:00:00 16.4 13 Noroeste 20 Noroeste 0 -- -- 82
2020-06-26 08:00:00 14.9 11 Noroeste 18 Noroeste 0 -- -- 87
2020-06-26 07:00:00 13.8 13 Noroeste 18 Noroeste 0 -- -- 89
2020-06-26 06:00:00 14.1 12 Noroeste 17 Noroeste 0 -- -- 89
2020-06-26 05:00:00 14.7 9 Noroeste 13 Noroeste 0 -- -- 87
2020-06-26 04:00:00 15.5 10 Noroeste 14 Noroeste 0 -- -- 86
2020-06-26 03:00:00 16.2 8 Noroeste 12 Noroeste 0 -- -- 82
2020-06-26 02:00:00 17.7 6 Norte 11 Norte 0 -- -- 77
2020-06-26 01:00:00 18.5 9 Norte 17 Norte 0 -- -- 73
2020-06-26 00:00:00 19.7 13 Noroeste 22 Noroeste 0 -- -- 67
2020-06-25 23:00:00 21.4 15 Noroeste 22 Noroeste 0 -- -- 60
2020-06-25 22:00:00 23 9 Noroeste 17 Norte 0 -- -- 61
2020-06-25 21:00:00 25.3 13 Noroeste 24 Oeste 0 -- -- 55
2020-06-25 20:00:00 26.2 9 Noroeste 24 Norte 0 -- -- 47
2020-06-25 19:00:00 26.9 14 Norte 45 Oeste 0 -- -- 48
2020-06-25 18:00:00 29.2 28 Sur 41 Sur 0 -- -- 32
2020-06-25 17:00:00 29.5 19 Sur 34 Sudoeste 0 -- -- 34
2020-06-25 16:00:00 28.7 15 Sur 32 Sur 0 -- -- 38
2020-06-25 15:00:00 27 12 Sudeste 22 Este 0 -- -- 50
2020-06-25 14:00:00 25.9 12 Sudeste 26 Sur 0 -- -- 49
2020-06-25 13:00:00 25.1 13 Sudeste 22 Sudeste 0 -- -- 53
2020-06-25 12:00:00 23.5 13 Sudeste 28 Sudeste 0 -- -- 59
2020-06-25 11:00:00 22.1 12 Este 19 Nordeste 0 -- -- 61
2020-06-25 10:00:00 20.5 7 Nordeste 15 Norte 0 -- -- 65
2020-06-25 09:00:00 16.7 11 Norte 18 Noroeste 0 -- -- 82
2020-06-25 08:00:00 13.9 11 Noroeste 16 Norte 0 -- -- 90
2020-06-25 07:00:00 14 9 Norte 13 Norte 0 -- -- 92
2020-06-25 06:00:00 13.9 3 Noroeste 9 Nordeste 0 -- -- 92
2020-06-25 05:00:00 13.9 4 Norte 14 Noroeste 0.2 -- -- 90
2020-06-25 04:00:00 14.1 9 Norte 15 Norte 0 -- -- 89
2020-06-25 03:00:00 14.8 6 Norte 13 Nordeste 0 -- -- 87
2020-06-25 02:00:00 14.8 10 Este 16 Nordeste 0 -- -- 89
2020-06-25 01:00:00 16.4 3 Norte 34 Oeste 0.4 -- -- 81
2020-06-25 00:00:00 16.6 12 Noroeste 20 Este 0.6 -- -- 79
2020-06-24 23:00:00 16.7 10 Nordeste 41 Norte 0.2 -- -- 78
2020-06-24 22:00:00 16.7 20 Norte 35 Noroeste 0.6 -- -- 83
2020-06-24 21:00:00 17.4 26 Noroeste 42 Noroeste 0.6 -- -- 83
2020-06-24 20:00:00 21 28 Noroeste 41 Noroeste 0 -- -- 66
2020-06-24 19:00:00 26.3 15 Sudeste 30 Sudeste 0 -- -- 35
2020-06-24 18:00:00 27.5 14 Sudeste 25 Sur 0 -- -- 37
2020-06-24 17:00:00 27.8 18 Sur 31 Sur 0 -- -- 37
2020-06-24 16:00:00 27.8 12 Sudeste 21 Sudeste 0 -- -- 37
2020-06-24 15:00:00 27.3 10 Sudeste 18 Este 0 -- -- 36
2020-06-24 14:00:00 26.9 11 Sudeste 26 Sudeste 0 -- -- 41
2020-06-24 13:00:00 28.1 15 Este 27 Sudeste 0 -- -- 36
2020-06-24 12:00:00 27 12 Este 19 Este 0 -- -- 37
2020-06-24 11:00:00 26 11 Este 19 Este 0 -- -- 38
2020-06-24 10:00:00 25 11 Nordeste 15 Nordeste 0 -- -- 38
2020-06-24 09:00:00 20.4 5 Noroeste 12 Norte 0 -- -- 59
2020-06-24 08:00:00 16.2 10 Norte 17 Noroeste 0 -- -- 72
2020-06-24 07:00:00 14.5 8 Norte 12 Norte 0 -- -- 78
2020-06-24 06:00:00 15.1 8 Noroeste 12 Noroeste 0 -- -- 78
2020-06-24 05:00:00 15.8 8 Noroeste 14 Noroeste 0 -- -- 74
2020-06-24 04:00:00 16.7 8 Noroeste 12 Noroeste 0 -- -- 71
2020-06-24 03:00:00 17.9 10 Norte 12 Noroeste 0 -- -- 64
2020-06-24 02:00:00 19.5 7 Norte 12 Norte 0 -- -- 59
2020-06-24 01:00:00 20.8 9 Norte 13 Norte 0 -- -- 53
2020-06-24 00:00:00 22.8 5 Norte 27 Sudoeste 0 -- -- 46
2020-06-23 23:00:00 23.2 8 Norte 12 Nordeste 0 -- -- 44
2020-06-23 22:00:00 26.8 5 Noroeste 13 Noroeste 0 -- -- 35
2020-06-23 21:00:00 29.8 7 Noroeste 21 Noroeste 0 -- -- 29
2020-06-23 20:00:00 31.4 8 Sudeste 15 Sur 0 -- -- 26
2020-06-23 19:00:00 32.2 6 Sudeste 17 Sudeste 0 -- -- 23
2020-06-23 18:00:00 32.9 9 Sudeste 16 Sudeste 0 -- -- 22
2020-06-23 17:00:00 33.1 9 Sudeste 20 Sudoeste 0 -- -- 22
2020-06-23 16:00:00 32.6 5 Oeste 20 Sur 0 -- -- 21
2020-06-23 15:00:00 31.8 5 Este 15 Nordeste 0 -- -- 23
2020-06-23 14:00:00 31 4 Sur 13 Este 0 -- -- 25
2020-06-23 13:00:00 29.2 4 Nordeste 13 Este 0 -- -- 28
2020-06-23 12:00:00 27.2 4 Nordeste 13 Este 0 -- -- 32
2020-06-23 11:00:00 25.4 6 Este 13 Nordeste 0 -- -- 34
2020-06-23 10:00:00 23.4 7 Nordeste 13 Noroeste 0 -- -- 36
2020-06-23 09:00:00 18.6 10 Noroeste 17 Noroeste 0 -- -- 58
2020-06-23 08:00:00 14.4 12 Noroeste 17 Noroeste 0 -- -- 71
2020-06-23 07:00:00 12.6 10 Noroeste 17 Noroeste 0 -- -- 75
2020-06-23 06:00:00 13.2 12 Noroeste 19 Noroeste 0 -- -- 71
2020-06-23 05:00:00 13.5 10 Noroeste 17 Noroeste 0 -- -- 71
2020-06-23 04:00:00 13.9 10 Noroeste 14 Norte 0 -- -- 71
2020-06-23 03:00:00 15.2 8 Noroeste 12 Norte 0 -- -- 67
2020-06-23 02:00:00 17.3 9 Este 15 Nordeste 0 -- -- 65
2020-06-23 01:00:00 19.6 12 Nordeste 18 Nordeste 0 -- -- 56
2020-06-23 00:00:00 20.2 12 Nordeste 18 Nordeste 0 -- -- 49
2020-06-22 23:00:00 22 10 Nordeste 18 Nordeste 0 -- -- 40
2020-06-22 22:00:00 26 4 Nordeste 11 Nordeste 0 -- -- 33
2020-06-22 21:00:00 27.9 7 Nordeste 14 Este 0 -- -- 30
2020-06-22 20:00:00 29.4 6 Este 16 Este 0 -- -- 24
2020-06-22 19:00:00 30 9 Este 18 Sudeste 0 -- -- 23
2020-06-22 18:00:00 29.8 6 Nordeste 22 Sudeste 0 -- -- 26
2020-06-22 17:00:00 29.1 7 Sudeste 22 Sudeste 0 -- -- 32
2020-06-22 16:00:00 28 6 Sudeste 20 Sur 0 -- -- 34
2020-06-22 15:00:00 26.5 7 Sudoeste 18 Sudoeste 0 -- -- 41
2020-06-22 14:00:00 25.1 10 Sudeste 19 Este 0 -- -- 40
2020-06-22 13:00:00 23.3 7 Sudeste 15 Este 0 -- -- 47
2020-06-22 12:00:00 21.4 4 Este 10 Este 0 -- -- 57
2020-06-22 11:00:00 19.4 3 Oeste 6 Sudeste 0 -- -- 64
2020-06-22 10:00:00 17.6 0 Calma 8 Este 0 -- -- 71
2020-06-22 09:00:00 15.7 0 Calma 4 Este 0 -- -- 75
2020-06-22 08:00:00 12.2 3 Norte 6 Norte 0 -- -- 80
2020-06-22 07:00:00 10.1 4 Norte 8 Noroeste 0 -- -- 86
2020-06-22 06:00:00 10.9 4 Norte 10 Noroeste 0 -- -- 85
2020-06-22 05:00:00 12.2 5 Noroeste 9 Norte 0 -- -- 83
2020-06-22 04:00:00 13.3 7 Norte 14 Norte 0 -- -- 80
2020-06-22 03:00:00 14 8 Norte 10 Norte 0 -- -- 79
2020-06-22 02:00:00 15.2 6 Nordeste 10 Nordeste 0 -- -- 76
2020-06-22 01:00:00 16.4 9 Norte 17 Nordeste 0 -- -- 71
2020-06-22 00:00:00 17 9 Nordeste 16 Norte 0 -- -- 73
2020-06-21 23:00:00 19.5 12 Norte 17 Noroeste 0 -- -- 63
2020-06-21 22:00:00 22 18 Noroeste 29 Noroeste 0 -- -- 54
2020-06-21 21:00:00 24.4 19 Noroeste 30 Oeste 0 -- -- 47
2020-06-21 20:00:00 25.9 21 Noroeste 33 Oeste 0 -- -- 42
2020-06-21 19:00:00 26.9 21 Oeste 33 Oeste 0 -- -- 40
2020-06-21 18:00:00 27.2 23 Noroeste 31 Noroeste 0 -- -- 39
2020-06-21 17:00:00 27.6 19 Oeste 31 Oeste 0 -- -- 37
2020-06-21 16:00:00 27.4 18 Oeste 30 Oeste 0 -- -- 38
2020-06-21 15:00:00 25.6 9 Norte 17 Oeste 0 -- -- 35
2020-06-21 14:00:00 24.5 3 Nordeste 15 Oeste 0 -- -- 35
2020-06-21 13:00:00 22.9 10 Noroeste 19 Noroeste 0 -- -- 39
2020-06-21 12:00:00 21.3 14 Oeste 25 Noroeste 0 -- -- 43
2020-06-21 11:00:00 20 15 Noroeste 25 Noroeste 0 -- -- 49
2020-06-21 10:00:00 17.9 18 Noroeste 28 Oeste 0 -- -- 52
2020-06-21 09:00:00 15.4 17 Noroeste 24 Noroeste 0 -- -- 57
2020-06-21 08:00:00 12.6 11 Noroeste 18 Noroeste 0 -- -- 68
2020-06-21 07:00:00 11.4 13 Noroeste 19 Noroeste 0 -- -- 71
2020-06-21 06:00:00 12 5 Noroeste 24 Noroeste 0 -- -- 72
2020-06-21 05:00:00 13.5 20 Noroeste 28 Noroeste 0 -- -- 69
2020-06-21 04:00:00 14 15 Noroeste 36 Noroeste 0 -- -- 72
2020-06-21 03:00:00 14.7 23 Noroeste 33 Noroeste 0 -- -- 75
2020-06-21 02:00:00 15.4 15 Noroeste 26 Noroeste 0 -- -- 73
2020-06-21 01:00:00 16.6 20 Noroeste 27 Noroeste 0 -- -- 64
2020-06-21 00:00:00 17.4 12 Noroeste 27 Noroeste 0 -- -- 52
2020-06-20 23:00:00 19.2 14 Oeste 25 Noroeste 0 -- -- 42
2020-06-20 22:00:00 21.3 13 Oeste 32 Noroeste 0 -- -- 41
2020-06-20 21:00:00 24.1 23 Noroeste 32 Oeste 0 -- -- 34
2020-06-20 20:00:00 26 26 Oeste 34 Oeste 0 -- -- 35
2020-06-20 19:00:00 27.1 6 Sudoeste 22 Sur 0 -- -- 31
2020-06-20 18:00:00 27.6 9 Sudoeste 23 Sudoeste 0 -- -- 28
2020-06-20 17:00:00 27 11 Oeste 21 Sur 0 -- -- 32
2020-06-20 16:00:00 25.5 5 Este 21 Sudeste 0 -- -- 34
2020-06-20 15:00:00 24.2 13 Sur 21 Sur 0 -- -- 38
2020-06-20 14:00:00 22.3 10 Sudoeste 22 Sudoeste 0 -- -- 41
2020-06-20 13:00:00 20.9 9 Sur 20 Sudoeste 0 -- -- 47
2020-06-20 12:00:00 19.3 8 Sudoeste 17 Sudoeste 0 -- -- 55
2020-06-20 11:00:00 17.5 7 Sudoeste 12 Sudoeste 0 -- -- 59
2020-06-20 10:00:00 16 6 Noroeste 11 Noroeste 0 -- -- 65
2020-06-20 09:00:00 13.3 8 Noroeste 14 Norte 0 -- -- 74
2020-06-20 08:00:00 10.3 9 Noroeste 13 Noroeste 0 -- -- 82
2020-06-20 07:00:00 8.5 6 Noroeste 9 Oeste 0 -- -- 85
2020-06-20 06:00:00 9.5 3 Oeste 6 Noroeste 0 -- -- 81
2020-06-20 05:00:00 11.3 6 Norte 13 Norte 0 -- -- 77
2020-06-20 04:00:00 11.9 9 Norte 13 Norte 0 -- -- 72
2020-06-20 03:00:00 12 6 Norte 8 Noroeste 0 -- -- 72
2020-06-20 02:00:00 13.4 9 Noroeste 13 Noroeste 0 -- -- 67
2020-06-20 01:00:00 14 10 Noroeste 12 Oeste 0 -- -- 64
2020-06-20 00:00:00 15.6 10 Oeste 19 Oeste 0 -- -- 58
2020-06-19 23:00:00 17.3 12 Oeste 32 Oeste 0 -- -- 52
2020-06-19 22:00:00 19.7 19 Oeste 35 Oeste 0 -- -- 44
2020-06-19 21:00:00 22 23 Oeste 35 Noroeste 0 -- -- 39
2020-06-19 20:00:00 23.8 26 Oeste 37 Oeste 0 -- -- 34
2020-06-19 19:00:00 24.7 18 Noroeste 32 Oeste 0 -- -- 33
2020-06-19 18:00:00 24.4 17 Noroeste 24 Noroeste 0 -- -- 32
2020-06-19 17:00:00 24.5 11 Sur 24 Sur 0 -- -- 35
2020-06-19 16:00:00 23.7 13 Sudoeste 27 Sur 0 -- -- 37
2020-06-19 15:00:00 21.8 4 Sur 22 Sudoeste 0 -- -- 40
2020-06-19 14:00:00 20.4 6 Oeste 20 Oeste 0 -- -- 41
2020-06-19 13:00:00 19.1 9 Sudoeste 18 Sudoeste 0 -- -- 47
2020-06-19 12:00:00 17.9 5 Sudoeste 14 Sudoeste 0 -- -- 51
2020-06-19 11:00:00 16.9 4 Noroeste 11 Norte 0 -- -- 56
2020-06-19 10:00:00 14.9 8 Noroeste 19 Noroeste 0 -- -- 64
2020-06-19 09:00:00 12.1 16 Noroeste 24 Noroeste 0 -- -- 73
2020-06-19 08:00:00 9.4 13 Noroeste 18 Noroeste 0 -- -- 82
2020-06-19 07:00:00 7.8 10 Noroeste 17 Norte 0 -- -- 87
2020-06-19 06:00:00 8.1 9 Noroeste 15 Noroeste 0 -- -- 86
2020-06-19 05:00:00 8.3 9 Norte 12 Noroeste 0 -- -- 85
2020-06-19 04:00:00 9.2 7 Noroeste 14 Noroeste 0 -- -- 83
2020-06-19 03:00:00 10.1 6 Noroeste 10 Noroeste 0 -- -- 80
2020-06-19 02:00:00 11.6 7 Nordeste 14 Nordeste 0 -- -- 77
2020-06-19 01:00:00 12 8 Nordeste 17 Nordeste 0 -- -- 75
2020-06-19 00:00:00 13.8 8 Noroeste 22 Noroeste 0 -- -- 64
2020-06-18 23:00:00 15.4 13 Noroeste 19 Noroeste 0 -- -- 52
2020-06-18 22:00:00 17.6 14 Noroeste 32 Noroeste 0 -- -- 47
2020-06-18 21:00:00 20.1 23 Noroeste 30 Oeste 0 -- -- 41
2020-06-18 20:00:00 22.4 11 Noroeste 26 Oeste 0 -- -- 36
2020-06-18 19:00:00 22.5 8 Noroeste 25 Sudoeste 0 -- -- 34
2020-06-18 18:00:00 21.8 10 Sudoeste 22 Sudoeste 0 -- -- 38
2020-06-18 17:00:00 20.4 6 Sudoeste 17 Sudoeste 0 -- -- 40
2020-06-18 16:00:00 19.7 8 Sudoeste 19 Sur 0 -- -- 44
2020-06-18 15:00:00 19.1 9 Sur 20 Sur 0 -- -- 47
2020-06-18 14:00:00 18.6 7 Este 20 Sur 0 -- -- 49
2020-06-18 13:00:00 17.5 8 Sudeste 15 Sudoeste 0 -- -- 51
2020-06-18 12:00:00 15.7 8 Sudoeste 14 Sudoeste 0 -- -- 55
2020-06-18 11:00:00 15 4 Este 13 Noroeste 0 -- -- 62
2020-06-18 10:00:00 12.8 10 Noroeste 16 Norte 0 -- -- 68
2020-06-18 09:00:00 9.5 11 Noroeste 19 Noroeste 0 -- -- 81
2020-06-18 08:00:00 8.6 5 Noroeste 14 Noroeste 0 -- -- 85
2020-06-18 07:00:00 7.7 9 Noroeste 17 Noroeste 0 -- -- 89
2020-06-18 06:00:00 7.2 12 Noroeste 16 Noroeste 0 -- -- 89
2020-06-18 05:00:00 7.8 9 Noroeste 13 Noroeste 0 -- -- 90
2020-06-18 04:00:00 9 6 Noroeste 9 Noroeste 0 -- -- 89
2020-06-18 03:00:00 9.5 3 Norte 6 Norte 0 -- -- 90
2020-06-18 02:00:00 9.7 5 Norte 10 Norte 0 -- -- 88
2020-06-18 01:00:00 11.1 6 Noroeste 9 Noroeste 0 -- -- 85
2020-06-18 00:00:00 12.2 3 Noroeste 14 Noroeste 0 -- -- 84
2020-06-17 23:00:00 13.3 12 Noroeste 20 Noroeste 0.2 -- -- 77
2020-06-17 22:00:00 13.6 6 Norte 22 Oeste 0.4 -- -- 80
2020-06-17 21:00:00 15.2 18 Oeste 30 Oeste 0 -- -- 64
2020-06-17 20:00:00 16.9 21 Oeste 27 Oeste 0 -- -- 56
2020-06-17 19:00:00 18.3 7 Oeste 17 Oeste 0 -- -- 44
2020-06-17 18:00:00 18.7 4 Sudoeste 18 Noroeste 0 -- -- 42
2020-06-17 17:00:00 18.9 8 Noroeste 21 Noroeste 0 -- -- 41
2020-06-17 16:00:00 19.4 11 Oeste 21 Oeste 0 -- -- 41
2020-06-17 15:00:00 18.6 9 Oeste 22 Noroeste 0 -- -- 40
2020-06-17 14:00:00 17.3 5 Sudoeste 15 Sudoeste 0 -- -- 43
2020-06-17 13:00:00 16.2 8 Oeste 18 Sudoeste 0 -- -- 46
2020-06-17 12:00:00 15.6 10 Oeste 18 Noroeste 0 -- -- 50
2020-06-17 11:00:00 14.8 8 Noroeste 18 Noroeste 0 -- -- 57
2020-06-17 10:00:00 13.6 9 Noroeste 22 Noroeste 0 -- -- 66
2020-06-17 09:00:00 11.3 16 Noroeste 22 Noroeste 0 -- -- 76
2020-06-17 08:00:00 9.5 8 Noroeste 13 Norte 0 -- -- 85
2020-06-17 07:00:00 7.8 8 Noroeste 16 Noroeste 0 -- -- 89
2020-06-17 06:00:00 8.2 10 Noroeste 22 Noroeste 0 -- -- 88
2020-06-17 05:00:00 8.8 13 Noroeste 19 Noroeste 0 -- -- 86
2020-06-17 04:00:00 9.7 11 Noroeste 21 Oeste 0 -- -- 83
2020-06-17 03:00:00 10.6 14 Oeste 24 Noroeste 0 -- -- 78
2020-06-17 02:00:00 11.4 12 Oeste 23 Noroeste 0 -- -- 76
2020-06-17 01:00:00 11.9 13 Oeste 20 Oeste 0 -- -- 74
2020-06-17 00:00:00 12.8 12 Oeste 21 Oeste 0 -- -- 69
2020-06-16 23:00:00 12.9 13 Oeste 28 Oeste 0 -- -- 68
2020-06-16 22:00:00 13.8 21 Oeste 29 Oeste 0 -- -- 63
2020-06-16 21:00:00 14.7 25 Oeste 38 Oeste 0 -- -- 58
2020-06-16 20:00:00 15.9 28 Oeste 47 Oeste 0 -- -- 55
2020-06-16 19:00:00 17.9 32 Oeste 50 Oeste 0 -- -- 48
2020-06-16 18:00:00 19 32 Oeste 48 Oeste 0 -- -- 42
2020-06-16 17:00:00 19.4 37 Oeste 55 Oeste 0 -- -- 47
2020-06-16 16:00:00 19.6 27 Oeste 46 Oeste 0 -- -- 46
2020-06-16 15:00:00 20 29 Oeste 47 Oeste 0 -- -- 44
2020-06-16 14:00:00 19.9 30 Oeste 45 Oeste 0 -- -- 44
2020-06-16 13:00:00 18 23 Oeste 37 Oeste 0 -- -- 54
2020-06-16 12:00:00 15.6 12 Sudoeste 24 Sudoeste 0 -- -- 64
2020-06-16 11:00:00 14.1 8 Sudoeste 12 Sudoeste 0 -- -- 70
2020-06-16 10:00:00 13.1 5 Noroeste 13 Oeste 0 -- -- 77
2020-06-16 09:00:00 11.8 8 Noroeste 15 Oeste 0 -- -- 84
2020-06-16 08:00:00 11.1 7 Oeste 10 Oeste 0 -- -- 86
2020-06-16 07:00:00 9.4 6 Sudoeste 13 Oeste 0 -- -- 88
2020-06-16 06:00:00 9.6 9 Oeste 21 Oeste 0 -- -- 88
2020-06-16 05:00:00 9.1 10 Oeste 15 Oeste 0 -- -- 89
2020-06-16 04:00:00 9.3 9 Oeste 19 Oeste 0 -- -- 86
2020-06-16 03:00:00 10.2 12 Oeste 17 Oeste 0 -- -- 83
2020-06-16 02:00:00 11 17 Oeste 31 Oeste 0 -- -- 80
2020-06-16 01:00:00 11.6 19 Oeste 31 Oeste 0 -- -- 77
2020-06-16 00:00:00 12.4 20 Oeste 27 Oeste 0 -- -- 71
2020-06-15 23:00:00 13.1 21 Oeste 35 Oeste 0 -- -- 67
2020-06-15 22:00:00 14.1 18 Oeste 37 Oeste 0 -- -- 65
2020-06-15 21:00:00 15.5 26 Oeste 36 Oeste 0 -- -- 60
2020-06-15 20:00:00 16.7 26 Oeste 35 Oeste 0 -- -- 53
2020-06-15 19:00:00 17.7 23 Oeste 33 Oeste 0 -- -- 46
2020-06-15 18:00:00 18.3 26 Oeste 37 Oeste 0 -- -- 48
2020-06-15 17:00:00 19.1 22 Oeste 36 Oeste 0 -- -- 47
2020-06-15 16:00:00 18.9 21 Noroeste 36 Oeste 0 -- -- 46
2020-06-15 15:00:00 18.7 22 Oeste 36 Oeste 0 -- -- 48
2020-06-15 14:00:00 18 17 Oeste 35 Oeste 0 -- -- 51
2020-06-15 13:00:00 17.1 24 Oeste 37 Oeste 0 -- -- 53
2020-06-15 12:00:00 16.5 27 Oeste 37 Oeste 0 -- -- 54
2020-06-15 11:00:00 15.1 21 Oeste 33 Oeste 0 -- -- 61
2020-06-15 10:00:00 13.7 25 Oeste 33 Oeste 0 -- -- 67
2020-06-15 09:00:00 12.2 19 Noroeste 28 Oeste 0 -- -- 76
2020-06-15 08:00:00 10.4 13 Noroeste 18 Noroeste 0 -- -- 83
2020-06-15 07:00:00 8.5 11 Oeste 18 Oeste 0 -- -- 88
2020-06-15 06:00:00 8.9 12 Oeste 22 Noroeste 0 -- -- 88
2020-06-15 05:00:00 8.7 16 Noroeste 29 Noroeste 0 -- -- 87
2020-06-15 04:00:00 8.3 14 Oeste 19 Oeste 0 -- -- 89
2020-06-15 03:00:00 8.4 11 Oeste 17 Oeste 0 -- -- 86
2020-06-15 02:00:00 9.4 11 Oeste 18 Oeste 0 -- -- 83
2020-06-15 01:00:00 9.9 7 Oeste 20 Oeste 0 -- -- 82
2020-06-15 00:00:00 11.1 14 Oeste 30 Oeste 0 -- -- 78
2020-06-14 23:00:00 12.2 25 Oeste 35 Oeste 0 -- -- 74
2020-06-14 22:00:00 13 21 Oeste 35 Oeste 0 -- -- 70
2020-06-14 21:00:00 14.7 22 Oeste 33 Oeste 0 -- -- 61
2020-06-14 20:00:00 16.3 22 Oeste 31 Oeste 0 -- -- 53
2020-06-14 19:00:00 16.9 19 Oeste 32 Oeste 0 -- -- 50
2020-06-14 18:00:00 16.8 22 Oeste 36 Noroeste 0 -- -- 52
2020-06-14 17:00:00 17.6 19 Noroeste 34 Oeste 0 -- -- 50
2020-06-14 16:00:00 17.1 24 Noroeste 33 Noroeste 0 -- -- 52
2020-06-14 15:00:00 17 21 Oeste 33 Oeste 0 -- -- 50
2020-06-14 14:00:00 15.4 9 Oeste 21 Sudoeste 0 -- -- 52
2020-06-14 13:00:00 14.9 12 Oeste 23 Sudoeste 0 -- -- 56
2020-06-14 12:00:00 14.9 13 Sudoeste 33 Oeste 0 -- -- 58
2020-06-14 11:00:00 13.6 17 Oeste 24 Sudoeste 0 -- -- 62
2020-06-14 10:00:00 11.8 12 Sudoeste 17 Sudoeste 0 -- -- 67
2020-06-14 09:00:00 10.1 10 Sudoeste 14 Sudoeste 0 -- -- 79
2020-06-14 08:00:00 8.5 6 Sudoeste 10 Oeste 0 -- -- 87
2020-06-14 07:00:00 8.2 5 Sudoeste 13 Noroeste 0 -- -- 87
2020-06-14 06:00:00 7.9 6 Sudoeste 9 Oeste 0 -- -- 88
2020-06-14 05:00:00 7.5 4 Oeste 7 Oeste 0 -- -- 89
2020-06-14 04:00:00 7.6 6 Oeste 14 Oeste 0 -- -- 88
2020-06-14 03:00:00 8 8 Oeste 12 Oeste 0 -- -- 86
2020-06-14 02:00:00 9 12 Oeste 18 Noroeste 0 -- -- 84
2020-06-14 01:00:00 9.4 10 Noroeste 18 Noroeste 0 -- -- 82
2020-06-14 00:00:00 10.1 12 Noroeste 19 Noroeste 0 -- -- 78
2020-06-13 23:00:00 11.7 15 Oeste 30 Oeste 0 -- -- 72
2020-06-13 22:00:00 13.6 18 Noroeste 26 Oeste 0 -- -- 61
2020-06-13 21:00:00 14.8 18 Noroeste 32 Oeste 0 -- -- 59
2020-06-13 20:00:00 15.3 25 Oeste 33 Oeste 0 -- -- 55
2020-06-13 19:00:00 15.7 12 Sudoeste 26 Sudoeste 0 -- -- 58
2020-06-13 18:00:00 16.2 17 Oeste 27 Sudoeste 0 -- -- 60
2020-06-13 17:00:00 13.8 14 Noroeste 30 Sudoeste 0.4 -- -- 75
2020-06-13 16:00:00 16.3 23 Sudoeste 35 Sudoeste 0 -- -- 54
2020-06-13 15:00:00 16.5 15 Sudoeste 32 Oeste 0 -- -- 53
2020-06-13 14:00:00 15.6 18 Oeste 41 Oeste 0 -- -- 53
2020-06-13 13:00:00 15.9 27 Oeste 40 Oeste 0 -- -- 53
2020-06-13 12:00:00 14.4 20 Oeste 33 Oeste 0 -- -- 58
2020-06-13 11:00:00 12.7 23 Oeste 31 Oeste 0 -- -- 64
2020-06-13 10:00:00 11 13 Oeste 21 Oeste 0 -- -- 71
2020-06-13 09:00:00 10.1 12 Sudoeste 23 Oeste 0 -- -- 74
2020-06-13 08:00:00 9.3 9 Sudoeste 21 Sudoeste 0 -- -- 78
2020-06-13 07:00:00 9.4 11 Sudoeste 29 Sudoeste 0 -- -- 77
2020-06-13 06:00:00 9.4 17 Sudoeste 24 Sudoeste 0 -- -- 77
2020-06-13 05:00:00 8.6 9 Sudoeste 21 Sudoeste 0 -- -- 80
2020-06-13 04:00:00 9.5 12 Sudoeste 34 Oeste 0 -- -- 75
2020-06-13 03:00:00 9.8 15 Oeste 26 Oeste 0 -- -- 76
2020-06-13 02:00:00 10.1 13 Sudoeste 35 Oeste 0 -- -- 75
2020-06-13 01:00:00 10.3 16 Oeste 30 Oeste 0 -- -- 75
2020-06-13 00:00:00 10.4 21 Sudoeste 34 Oeste 0 -- -- 75
2020-06-12 23:00:00 10.7 22 Oeste 33 Oeste 0 -- -- 71
2020-06-12 22:00:00 11.5 19 Oeste 40 Oeste 0 -- -- 66
2020-06-12 21:00:00 12.7 23 Oeste 38 Oeste 0 -- -- 60
2020-06-12 20:00:00 14.6 26 Oeste 45 Sudoeste 0 -- -- 55
2020-06-12 19:00:00 13.8 30 Oeste 44 Oeste 0 -- -- 59
2020-06-12 18:00:00 13.6 30 Oeste 42 Oeste 0 -- -- 61
2020-06-12 17:00:00 15 27 Oeste 45 Noroeste 0.2 -- -- 59
2020-06-12 16:00:00 14.5 31 Sudoeste 51 Sudoeste 0 -- -- 59
2020-06-12 15:00:00 13.4 28 Sudoeste 39 Oeste 0 -- -- 69
2020-06-12 14:00:00 10.9 15 Sudoeste 28 Sudoeste 0.8 -- -- 78
2020-06-12 13:00:00 12.8 19 Oeste 40 Oeste 0 -- -- 58
2020-06-12 12:00:00 12.8 27 Oeste 41 Sudoeste 0 -- -- 57
2020-06-12 11:00:00 12.7 29 Oeste 44 Oeste 0 -- -- 56
2020-06-12 10:00:00 10.2 32 Oeste 42 Oeste 0 -- -- 63
2020-06-12 09:00:00 10.3 26 Oeste 38 Oeste 0 -- -- 62
2020-06-12 08:00:00 9.1 28 Oeste 43 Oeste 0 -- -- 69
2020-06-12 07:00:00 7.9 24 Oeste 32 Oeste 0 -- -- 78
2020-06-12 06:00:00 8.6 18 Sudoeste 27 Sudoeste 0 -- -- 84
2020-06-12 05:00:00 7.8 23 Sudoeste 33 Sudoeste 0.2 -- -- 90
2020-06-12 04:00:00 8 20 Sudoeste 37 Sudoeste 0 -- -- 85
2020-06-12 03:00:00 8.4 27 Sudoeste 46 Sur 0 -- -- 78
2020-06-12 02:00:00 8.7 30 Sur 44 Sur 0 -- -- 74
2020-06-12 01:00:00 9.4 24 Sur 32 Sur 0 -- -- 64
2020-06-12 00:00:00 9.4 16 Sudoeste 35 Sudoeste 0 -- -- 64
2020-06-11 23:00:00 9.1 24 Sudoeste 38 Sudoeste 0 -- -- 64
2020-06-11 22:00:00 9 22 Oeste 32 Oeste 0 -- -- 69
2020-06-11 21:00:00 10.1 26 Oeste 48 Oeste 0 -- -- 64
2020-06-11 20:00:00 12 33 Oeste 55 Oeste 0 -- -- 55
2020-06-11 19:00:00 12.5 39 Oeste 58 Oeste 0 -- -- 59
2020-06-11 18:00:00 14.3 37 Oeste 58 Oeste 0 -- -- 55
2020-06-11 17:00:00 16.2 41 Oeste 57 Oeste 0 -- -- 46
2020-06-11 16:00:00 16.7 41 Oeste 57 Oeste 0 -- -- 53
2020-06-11 15:00:00 15.9 31 Oeste 46 Noroeste 0 -- -- 57
2020-06-11 14:00:00 15.4 36 Oeste 50 Oeste 0 -- -- 59
2020-06-11 13:00:00 15.2 31 Oeste 49 Oeste 0 -- -- 63
2020-06-11 12:00:00 17.1 32 Oeste 51 Oeste 0 -- -- 52
2020-06-11 11:00:00 15.3 33 Oeste 47 Oeste 0 -- -- 62
2020-06-11 10:00:00 14.1 22 Oeste 34 Oeste 0 -- -- 68
2020-06-11 09:00:00 12.5 18 Oeste 25 Oeste 0 -- -- 71
2020-06-11 08:00:00 12.3 8 Oeste 16 Noroeste 0 -- -- 64
2020-06-11 07:00:00 11.3 13 Noroeste 20 Oeste 0 -- -- 66
2020-06-11 06:00:00 11.5 14 Oeste 30 Oeste 0 -- -- 64
2020-06-11 05:00:00 12.2 25 Oeste 36 Oeste 0 -- -- 68
2020-06-11 04:00:00 13 25 Oeste 41 Oeste 0 -- -- 69
2020-06-11 03:00:00 13.8 24 Oeste 35 Oeste 0 -- -- 66
2020-06-11 02:00:00 14.3 14 Oeste 27 Noroeste 0 -- -- 63
2020-06-11 01:00:00 14.9 13 Noroeste 31 Oeste 0 -- -- 59
2020-06-11 00:00:00 15.5 20 Oeste 31 Oeste 0 -- -- 58
2020-06-10 23:00:00 16.6 17 Oeste 23 Oeste 0 -- -- 53
2020-06-10 22:00:00 18 19 Oeste 34 Noroeste 0 -- -- 42
2020-06-10 21:00:00 19.6 26 Oeste 37 Oeste 0 -- -- 35
2020-06-10 20:00:00 21.7 28 Noroeste 39 Oeste 0 -- -- 33
2020-06-10 19:00:00 21.6 7 Sudoeste 22 Sudoeste 0 -- -- 36
2020-06-10 18:00:00 21.8 10 Sur 25 Sudoeste 0 -- -- 41
2020-06-10 17:00:00 21.2 11 Sudoeste 19 Sur 0 -- -- 41
2020-06-10 16:00:00 20.5 8 Oeste 23 Sur 0 -- -- 42
2020-06-10 15:00:00 19.6 8 Noroeste 22 Sudoeste 0 -- -- 43
2020-06-10 14:00:00 18 6 Sudoeste 17 Sudoeste 0 -- -- 45
2020-06-10 13:00:00 16.8 7 Sudoeste 15 Sur 0 -- -- 49
2020-06-10 12:00:00 15.3 6 Sudeste 12 Sudoeste 0 -- -- 54
2020-06-10 11:00:00 14.1 4 Sudeste 9 Sur 0 -- -- 61
2020-06-10 10:00:00 12 4 Norte 9 Norte 0 -- -- 69
2020-06-10 09:00:00 10.3 5 Noroeste 9 Noroeste 0 -- -- 77
2020-06-10 08:00:00 7.2 6 Noroeste 9 Noroeste 0 -- -- 86
2020-06-10 07:00:00 6.6 5 Noroeste 9 Noroeste 0 -- -- 87
2020-06-10 06:00:00 6.8 4 Norte 6 Noroeste 0 -- -- 85
2020-06-10 05:00:00 7.2 3 Noroeste 7 Noroeste 0 -- -- 85
2020-06-10 04:00:00 7.9 4 Noroeste 8 Noroeste 0 -- -- 82
2020-06-10 03:00:00 8.8 3 Noroeste 6 Noroeste 0 -- -- 78
2020-06-10 02:00:00 10 3 Norte 10 Nordeste 0 -- -- 74
2020-06-10 01:00:00 11 8 Nordeste 15 Nordeste 0 -- -- 72
2020-06-10 00:00:00 11.7 12 Nordeste 20 Nordeste 0 -- -- 67